Time;durP1;ratioP1;P1;durP2;ratioP2;P2;SDS_P1;SDS_P2;PMS_P1;PMS_P2;Temp;Humidity;BMP_temperature;BMP_pressure;BME280_temperature;BME280_humidity;BME280_pressure;Samples;Min_cycle;Max_cycle;Signal;HPM_P1;HPM_P2
2021/05/12 00:02:18;;;;;;;21.88;14.88;;;17.50;73.90;;;;;;6181899;23;20103;-69
2021/05/12 00:04:44;;;;;;;23.25;15.55;;;17.50;73.60;;;;;;6157093;23;20045;-69
2021/05/12 00:07:10;;;;;;;21.58;15.13;;;17.60;73.70;;;;;;6156840;23;20447;-69
2021/05/12 00:09:35;;;;;;;26.70;14.73;;;17.70;73.00;;;;;;6182643;23;20009;-69
2021/05/12 00:12:02;;;;;;;20.08;14.05;;;17.80;72.70;;;;;;6155716;23;20020;-69
2021/05/12 00:14:30;;;;;;;17.88;11.98;;;17.80;72.40;;;;;;6184362;23;20516;-69
2021/05/12 00:17:00;;;;;;;18.27;11.27;;;17.90;72.10;;;;;;6183245;23;20020;-69
2021/05/12 00:19:32;;;;;;;19.13;12.15;;;17.90;71.80;;;;;;6156546;23;20024;-69
2021/05/12 00:24:37;;;;;;;17.20;11.05;;;17.90;71.50;;;;;;6158452;23;20461;-69
2021/05/12 00:27:03;;;;;;;12.60;9.82;;;17.90;71.30;;;;;;6181597;23;20328;-69
2021/05/12 00:29:29;;;;;;;16.90;10.50;;;18.00;71.20;;;;;;6155689;23;20613;-69
2021/05/12 00:31:55;;;;;;;14.75;9.93;;;18.00;71.10;;;;;;6158706;23;20092;-69
2021/05/12 00:34:21;;;;;;;16.40;9.40;;;17.90;71.10;;;;;;6183992;23;20088;-69
2021/05/12 00:36:47;;;;;;;14.25;9.13;;;17.90;71.10;;;;;;6156071;23;20076;-69
2021/05/12 00:39:13;;;;;;;11.85;8.18;;;17.90;71.10;;;;;;6183441;23;20016;-69
2021/05/12 00:41:40;;;;;;;12.63;8.73;;;18.00;71.30;;;;;;6109112;23;20305;-69
2021/05/12 00:44:15;;;;;;;11.18;8.23;;;18.00;71.20;;;;;;6181843;23;20021;-68
2021/05/12 00:46:45;;;;;;;14.32;8.98;;;18.00;71.00;;;;;;6181906;23;20100;-69
2021/05/12 00:49:11;;;;;;;11.00;7.68;;;18.00;70.80;;;;;;6182675;23;20455;-69
2021/05/12 00:51:37;;;;;;;12.32;8.18;;;18.00;70.60;;;;;;6181893;23;20013;-69
2021/05/12 00:54:03;;;;;;;10.98;7.57;;;18.00;70.70;;;;;;6181985;23;20013;-69
2021/05/12 00:56:30;;;;;;;10.52;7.20;;;18.10;70.80;;;;;;6157473;23;20021;-69
2021/05/12 00:58:55;;;;;;;11.68;7.72;;;18.10;70.60;;;;;;6154765;23;20447;-69
2021/05/12 01:01:21;;;;;;;10.80;7.38;;;18.10;70.60;;;;;;6181304;23;20064;-69
2021/05/12 01:03:47;;;;;;;9.88;6.65;;;18.10;70.60;;;;;;6183730;23;20099;-70
2021/05/12 01:06:22;;;;;;;12.05;7.20;;;18.10;70.50;;;;;;6183342;23;20044;-69
2021/05/12 01:08:48;;;;;;;9.27;6.45;;;18.10;70.60;;;;;;6155917;23;20013;-69
2021/05/12 01:11:14;;;;;;;10.20;7.43;;;18.00;70.60;;;;;;6182265;23;20072;-69
2021/05/12 01:13:40;;;;;;;8.70;6.25;;;18.00;70.70;;;;;;6182297;23;20017;-69
2021/05/12 01:16:06;;;;;;;8.52;6.65;;;18.00;70.70;;;;;;6182120;23;20510;-69
2021/05/12 01:18:33;;;;;;;10.13;7.18;;;18.00;70.80;;;;;;6131421;23;20017;-70
2021/05/12 01:21:02;;;;;;;10.73;6.43;;;18.00;70.80;;;;;;6182585;23;20019;-70
2021/05/12 01:23:31;;;;;;;10.93;6.32;;;18.00;70.60;;;;;;6157883;23;20116;-70
2021/05/12 01:25:58;;;;;;;9.30;6.80;;;18.00;70.50;;;;;;6183907;23;20025;-70
2021/05/12 01:28:26;;;;;;;10.20;6.32;;;18.00;70.60;;;;;;6183374;23;20017;-70
2021/05/12 01:31:23;;;;;;;11.25;6.65;;;18.00;70.50;;;;;;6154939;23;20017;-69
2021/05/12 01:33:51;;;;;;;9.93;6.20;;;18.00;70.60;;;;;;6130236;23;20103;-69
2021/05/12 01:36:17;;;;;;;12.13;6.35;;;17.90;70.80;;;;;;6131488;23;20096;-68
2021/05/12 01:38:45;;;;;;;10.25;6.18;;;17.90;70.80;;;;;;6182258;23;20016;-68
2021/05/12 01:41:12;;;;;;;10.23;6.47;;;17.80;70.80;;;;;;6181042;23;20012;-69
2021/05/12 01:43:38;;;;;;;11.70;6.45;;;17.90;70.70;;;;;;6182243;23;20705;-69
2021/05/12 01:46:05;;;;;;;7.53;5.43;;;17.90;70.70;;;;;;6182034;23;20016;-69
2021/05/12 01:48:31;;;;;;;9.27;6.10;;;17.80;70.70;;;;;;6181630;23;20009;-69
2021/05/12 01:50:57;;;;;;;12.10;5.82;;;17.80;70.30;;;;;;6181998;23;20017;-68
2021/05/12 01:53:24;;;;;;;12.68;6.72;;;17.70;70.70;;;;;;6155071;23;20025;-68
2021/05/12 01:55:53;;;;;;;8.75;5.75;;;17.70;70.80;;;;;;6154806;23;20013;-68
2021/05/12 01:58:20;;;;;;;9.70;5.90;;;17.80;70.60;;;;;;6154954;23;20013;-68
2021/05/12 02:00:49;;;;;;;8.32;5.50;;;17.80;70.50;;;;;;6183224;23;20013;-69
2021/05/12 02:03:17;;;;;;;9.75;5.63;;;17.80;70.30;;;;;;6181999;23;20045;-69
2021/05/12 02:05:45;;;;;;;9.32;6.20;;;17.80;70.40;;;;;;6181141;23;20017;-69
2021/05/12 02:08:12;;;;;;;9.68;6.60;;;17.80;70.40;;;;;;6181465;23;20048;-69
2021/05/12 02:10:42;;;;;;;8.70;5.70;;;17.80;70.40;;;;;;6181442;23;20076;-69
2021/05/12 02:13:09;;;;;;;11.13;6.65;;;17.80;70.40;;;;;;6182217;23;20021;-69
2021/05/12 02:15:35;;;;;;;8.35;5.35;;;17.80;70.30;;;;;;6183517;23;20013;-70
2021/05/12 02:18:01;;;;;;;10.05;5.28;;;17.80;70.20;;;;;;6183520;23;20023;-69
2021/05/12 02:20:34;;;;;;;8.75;5.47;;;17.90;70.20;;;;;;6183519;23;20352;-69
2021/05/12 02:23:05;;;;;;;8.85;5.43;;;17.90;70.00;;;;;;6182917;23;20095;-69
2021/05/12 02:25:32;;;;;;;8.68;5.55;;;18.00;69.70;;;;;;6180799;23;20088;-69
2021/05/12 02:27:58;;;;;;;8.32;6.03;;;18.00;69.70;;;;;;6154463;23;20016;-69
2021/05/12 02:30:24;;;;;;;10.85;6.10;;;18.00;69.60;;;;;;6155595;23;20439;-70
2021/05/12 02:32:51;;;;;;;8.52;5.32;;;18.00;69.60;;;;;;6181429;23;20020;-69
2021/05/12 02:35:18;;;;;;;8.27;5.75;;;18.00;69.60;;;;;;6182422;23;20060;-69
2021/05/12 02:37:44;;;;;;;9.48;6.32;;;18.00;69.50;;;;;;6131030;23;20076;-69
2021/05/12 02:40:12;;;;;;;8.55;5.15;;;18.00;69.50;;;;;;6169262;23;20032;-70
2021/05/12 02:42:38;;;;;;;7.82;5.70;;;18.00;69.70;;;;;;6180750;23;20044;-70
2021/05/12 02:45:06;;;;;;;10.10;5.45;;;18.00;69.80;;;;;;6182208;23;20009;-69
2021/05/12 02:47:32;;;;;;;10.05;5.00;;;18.10;69.60;;;;;;6154661;23;20078;-69
2021/05/12 02:49:58;;;;;;;8.90;5.40;;;18.00;69.40;;;;;;6156204;23;20013;-69
2021/05/12 02:52:24;;;;;;;7.70;5.50;;;18.00;69.20;;;;;;6181410;23;20013;-70
2021/05/12 02:54:50;;;;;;;9.13;5.90;;;18.10;69.10;;;;;;6180644;23;20462;-68
2021/05/12 02:57:16;;;;;;;8.07;5.20;;;18.10;69.00;;;;;;6156190;23;20033;-68
2021/05/12 02:59:42;;;;;;;8.40;5.70;;;18.10;68.90;;;;;;6181035;23;20100;-68
2021/05/12 03:02:08;;;;;;;8.82;6.15;;;18.10;68.90;;;;;;6154837;23;20040;-68
2021/05/12 03:04:34;;;;;;;13.23;5.63;;;18.10;68.90;;;;;;6129718;23;20447;-69
2021/05/12 03:07:01;;;;;;;8.07;5.55;;;18.10;68.90;;;;;;6180372;23;20025;-69
2021/05/12 03:09:27;;;;;;;8.25;4.78;;;18.10;68.80;;;;;;6154475;23;20100;-69
2021/05/12 03:11:53;;;;;;;7.30;5.03;;;18.10;68.70;;;;;;6153600;23;20454;-69
2021/05/12 03:14:19;;;;;;;10.15;6.47;;;18.10;68.60;;;;;;6184294;23;20053;-69
2021/05/12 03:16:46;;;;;;;8.00;5.32;;;18.10;68.40;;;;;;6184757;23;20037;-69
2021/05/12 03:19:11;;;;;;;9.20;5.93;;;18.10;68.10;;;;;;6182832;23;20012;-69
2021/05/12 03:21:38;;;;;;;9.85;5.45;;;18.10;68.10;;;;;;6185104;23;20628;-69
2021/05/12 03:24:05;;;;;;;9.10;4.90;;;18.10;68.20;;;;;;6157624;23;20027;-69
2021/05/12 03:26:31;;;;;;;8.35;4.68;;;18.10;68.20;;;;;;6183498;23;20013;-69
2021/05/12 03:28:57;;;;;;;6.80;4.53;;;18.10;68.20;;;;;;6155784;23;20533;-70
2021/05/12 03:31:23;;;;;;;7.60;4.03;;;18.10;68.10;;;;;;6156730;23;20036;-69
2021/05/12 03:33:49;;;;;;;7.82;4.38;;;18.10;67.90;;;;;;6157042;23;20056;-69
2021/05/12 03:36:15;;;;;;;8.23;4.65;;;18.20;68.00;;;;;;6183306;23;20400;-69
2021/05/12 03:38:41;;;;;;;10.32;4.30;;;18.10;67.80;;;;;;6182718;23;20037;-69
2021/05/12 03:41:07;;;;;;;8.07;5.25;;;18.10;67.50;;;;;;6183353;23;20100;-69
2021/05/12 03:43:34;;;;;;;6.63;3.65;;;18.10;67.60;;;;;;6182115;23;20020;-69
2021/05/12 03:46:01;;;;;;;9.55;4.13;;;18.10;67.60;;;;;;6183076;23;20009;-69
2021/05/12 03:48:27;;;;;;;6.55;4.03;;;18.10;67.50;;;;;;6182032;23;20024;-69
2021/05/12 03:50:53;;;;;;;6.97;4.68;;;18.10;67.30;;;;;;6183754;23;20017;-69
2021/05/12 03:53:18;;;;;;;7.30;4.82;;;18.10;67.20;;;;;;6182740;23;20013;-69
2021/05/12 03:55:44;;;;;;;6.80;3.83;;;18.00;67.00;;;;;;6183342;23;20013;-68
2021/05/12 03:58:10;;;;;;;7.53;4.30;;;18.00;67.10;;;;;;6156954;23;20017;-69
2021/05/12 04:00:36;;;;;;;7.10;3.65;;;18.00;67.20;;;;;;6182647;23;20088;-69
2021/05/12 04:03:02;;;;;;;5.13;3.45;;;18.00;67.10;;;;;;6132249;23;20039;-69
2021/05/12 04:05:28;;;;;;;6.50;3.75;;;18.00;67.00;;;;;;6157727;23;20017;-69
2021/05/12 04:07:54;;;;;;;7.05;4.50;;;18.00;66.90;;;;;;6182419;23;20443;-70
2021/05/12 04:10:21;;;;;;;9.38;3.83;;;18.00;66.90;;;;;;6182404;23;20017;-70
2021/05/12 04:12:47;;;;;;;7.97;3.60;;;18.00;66.80;;;;;;6156192;23;20017;-67
2021/05/12 04:15:13;;;;;;;6.57;3.97;;;18.00;66.90;;;;;;6181554;23;20070;-67
2021/05/12 04:17:39;;;;;;;5.07;3.50;;;18.00;66.90;;;;;;6182921;23;20020;-68
2021/05/12 04:20:11;;;;;;;9.10;4.75;;;18.10;66.90;;;;;;6157885;23;20048;-68
2021/05/12 04:22:38;;;;;;;5.80;3.67;;;18.10;66.80;;;;;;6182121;23;20021;-67
2021/05/12 04:25:07;;;;;;;6.45;3.75;;;18.10;66.90;;;;;;6180913;23;20023;-67
2021/05/12 04:27:32;;;;;;;6.00;3.85;;;18.00;67.00;;;;;;6181955;23;20017;-67
2021/05/12 04:29:58;;;;;;;7.22;3.33;;;18.00;67.10;;;;;;6181749;23;20471;-68
2021/05/12 04:32:24;;;;;;;7.93;3.83;;;18.00;67.50;;;;;;6157991;23;20024;-67
2021/05/12 04:34:50;;;;;;;4.65;2.50;;;18.00;67.00;;;;;;6181594;23;20040;-68
2021/05/12 04:37:16;;;;;;;6.10;3.35;;;18.10;66.90;;;;;;6182741;23;20370;-67
2021/05/12 04:39:43;;;;;;;7.78;3.25;;;18.10;66.50;;;;;;6183159;23;20039;-68
2021/05/12 04:42:09;;;;;;;7.03;3.40;;;18.10;66.40;;;;;;6182564;23;20009;-67
2021/05/12 04:44:35;;;;;;;7.47;4.57;;;18.10;66.30;;;;;;6155260;23;20020;-68
2021/05/12 04:47:00;;;;;;;7.78;4.63;;;18.10;66.40;;;;;;6183095;23;20095;-68
2021/05/12 04:49:26;;;;;;;7.25;3.70;;;18.10;66.30;;;;;;6184174;23;20384;-68
2021/05/12 04:51:52;;;;;;;6.63;4.25;;;18.10;66.30;;;;;;6182288;23;20816;-68
2021/05/12 04:54:18;;;;;;;7.10;4.25;;;18.10;66.20;;;;;;6181176;23;20013;-68
2021/05/12 04:56:44;;;;;;;5.90;4.47;;;18.10;66.30;;;;;;6154950;23;20443;-68
2021/05/12 04:59:10;;;;;;;5.88;4.07;;;18.10;66.40;;;;;;6169196;23;20036;-68
2021/05/12 05:01:36;;;;;;;6.57;4.47;;;18.10;66.40;;;;;;6156759;23;20059;-68
2021/05/12 05:04:02;;;;;;;10.30;4.78;;;18.10;66.10;;;;;;6130481;23;20039;-68
2021/05/12 05:06:28;;;;;;;7.72;4.32;;;18.10;66.00;;;;;;6157576;23;20024;-68
2021/05/12 05:08:55;;;;;;;7.75;4.57;;;18.20;66.10;;;;;;6182627;23;20023;-67
2021/05/12 05:11:21;;;;;;;7.45;4.30;;;18.20;66.20;;;;;;6181333;23;20100;-68
2021/05/12 05:13:46;;;;;;;8.75;4.38;;;18.10;66.20;;;;;;6182317;23;20096;-68
2021/05/12 05:16:12;;;;;;;6.22;3.75;;;18.20;66.20;;;;;;6181032;23;20095;-68
2021/05/12 05:18:38;;;;;;;6.47;3.88;;;18.10;66.20;;;;;;6156080;23;20016;-68
2021/05/12 05:21:06;;;;;;;5.80;3.05;;;18.10;66.20;;;;;;6157008;23;20009;-68
2021/05/12 05:23:35;;;;;;;7.32;3.70;;;18.10;66.20;;;;;;6181530;23;20024;-68
2021/05/12 05:26:01;;;;;;;5.20;3.03;;;18.10;66.20;;;;;;6181936;23;20120;-69
2021/05/12 05:28:27;;;;;;;6.85;3.58;;;18.00;66.10;;;;;;6181176;23;20351;-68
2021/05/12 05:30:52;;;;;;;6.00;3.33;;;18.00;66.10;;;;;;6154934;23;20024;-68
2021/05/12 05:33:18;;;;;;;8.85;4.22;;;18.00;66.20;;;;;;6181814;23;20028;-69
2021/05/12 05:35:44;;;;;;;6.80;3.47;;;17.90;66.30;;;;;;6182119;23;20017;-69
2021/05/12 05:38:12;;;;;;;9.52;4.35;;;18.00;66.60;;;;;;6182241;23;20012;-68
2021/05/12 05:40:37;;;;;;;6.80;3.75;;;17.90;66.70;;;;;;6157219;23;20077;-69
2021/05/12 05:43:06;;;;;;;12.07;4.20;;;17.90;66.90;;;;;;6181208;23;20354;-69
2021/05/12 05:45:32;;;;;;;12.20;4.80;;;18.00;67.10;;;;;;6182547;23;20313;-69
2021/05/12 05:47:58;;;;;;;11.13;5.18;;;18.00;66.90;;;;;;6177228;23;20074;-64
2021/05/12 05:50:24;;;;;;;9.32;4.95;;;18.10;66.70;;;;;;6154079;23;20451;-66
2021/05/12 05:52:54;;;;;;;8.10;4.20;;;18.10;66.20;;;;;;6180574;23;20036;-66
2021/05/12 05:55:19;;;;;;;10.73;5.03;;;18.20;65.80;;;;;;6180595;23;20024;-63
2021/05/12 05:57:47;;;;;;;10.68;5.55;;;18.20;65.60;;;;;;6179576;23;20017;-64
2021/05/12 06:00:14;;;;;;;15.75;5.60;;;18.30;65.40;;;;;;6179642;23;20013;-69
2021/05/12 06:02:41;;;;;;;10.60;5.20;;;18.30;65.20;;;;;;6181484;23;20116;-68
2021/05/12 06:05:07;;;;;;;7.55;4.90;;;18.30;65.10;;;;;;6180137;23;20459;-68
2021/05/12 06:07:33;;;;;;;6.43;4.45;;;18.40;64.90;;;;;;6180710;23;20498;-69
2021/05/12 06:09:59;;;;;;;9.27;4.18;;;18.40;64.70;;;;;;6180100;23;20020;-69
2021/05/12 06:12:25;;;;;;;7.60;4.18;;;18.40;64.60;;;;;;6152843;23;20013;-69
2021/05/12 06:14:51;;;;;;;8.93;5.15;;;18.40;64.50;;;;;;6180740;23;20079;-68
2021/05/12 06:17:17;;;;;;;8.98;5.20;;;18.50;64.60;;;;;;6180893;23;20017;-69
2021/05/12 06:19:43;;;;;;;8.82;4.25;;;18.50;64.50;;;;;;6181085;23;20071;-64
2021/05/12 06:22:08;;;;;;;10.45;5.80;;;18.60;64.30;;;;;;6180699;23;20128;-64
2021/05/12 06:24:34;;;;;;;7.57;5.22;;;18.60;64.30;;;;;;6154714;23;20090;-64
2021/05/12 06:27:02;;;;;;;10.02;4.85;;;18.40;64.30;;;;;;6180093;23;20020;-64
2021/05/12 06:29:28;;;;;;;12.68;5.40;;;18.40;64.60;;;;;;6182669;23;20023;-63
2021/05/12 06:31:54;;;;;;;8.77;5.03;;;18.40;64.50;;;;;;6156635;23;20017;-64
2021/05/12 06:34:20;;;;;;;7.18;4.78;;;18.50;64.50;;;;;;6182628;23;20017;-65
2021/05/12 06:36:45;;;;;;;9.07;5.93;;;18.50;64.80;;;;;;6154583;23;20020;-67
2021/05/12 06:39:11;;;;;;;9.32;6.25;;;18.50;64.20;;;;;;6181426;23;20017;-66
2021/05/12 06:41:38;;;;;;;10.70;6.93;;;18.50;64.30;;;;;;6180151;23;20123;-66
2021/05/12 06:44:05;;;;;;;9.55;6.75;;;18.50;64.40;;;;;;6180974;23;20579;-70
2021/05/12 06:46:32;;;;;;;11.75;7.78;;;18.40;64.50;;;;;;6179812;23;20041;-69
2021/05/12 06:48:58;;;;;;;11.30;7.13;;;18.40;64.60;;;;;;6179125;23;20016;-68
2021/05/12 06:51:24;;;;;;;9.88;7.35;;;18.40;64.60;;;;;;6180793;23;20339;-66
2021/05/12 06:53:50;;;;;;;10.27;7.97;;;18.40;64.70;;;;;;6179888;23;20027;-62
2021/05/12 06:56:15;;;;;;;10.50;6.60;;;18.30;64.70;;;;;;6180907;23;20013;-63
2021/05/12 06:58:42;;;;;;;9.45;6.45;;;18.40;64.70;;;;;;6154386;23;20019;-62
2021/05/12 07:01:09;;;;;;;9.98;6.88;;;18.40;64.60;;;;;;6181261;23;20041;-66
2021/05/12 07:03:35;;;;;;;8.32;5.03;;;18.60;64.30;;;;;;6182136;23;20539;-65
2021/05/12 07:06:02;;;;;;;9.98;8.18;;;18.90;63.90;;;;;;6153740;23;20013;-62
2021/05/12 07:08:28;;;;;;;8.35;6.25;;;19.20;63.50;;;;;;6179957;23;20068;-67
2021/05/12 07:10:56;;;;;;;10.15;5.55;;;19.40;62.50;;;;;;6180162;23;20104;-67
2021/05/12 07:13:22;;;;;;;8.48;4.95;;;19.60;61.90;;;;;;6180033;23;20420;-67
2021/05/12 07:15:48;;;;;;;5.95;4.90;;;19.90;61.00;;;;;;6180879;23;20039;-63
2021/05/12 07:18:13;;;;;;;6.80;4.57;;;20.00;60.10;;;;;;6154723;23;20497;-66
2021/05/12 07:20:39;;;;;;;7.80;5.75;;;19.90;60.00;;;;;;6181904;23;20443;-64
2021/05/12 07:23:08;;;;;;;8.10;4.53;;;20.00;60.10;;;;;;6182014;23;20075;-65
2021/05/12 07:25:35;;;;;;;7.25;4.25;;;20.00;60.00;;;;;;6153607;23;20021;-65
2021/05/12 07:28:02;;;;;;;6.45;3.80;;;20.00;59.80;;;;;;6181367;23;20009;-65
2021/05/12 07:30:28;;;;;;;7.03;4.07;;;20.20;59.70;;;;;;6181065;23;20501;-65
2021/05/12 07:32:54;;;;;;;5.78;3.97;;;20.40;59.40;;;;;;6153814;23;20351;-64
2021/05/12 07:35:20;;;;;;;7.55;3.60;;;20.40;58.50;;;;;;6154556;23;20020;-63
2021/05/12 07:38:06;;;;;;;4.75;2.65;;;20.40;57.70;;;;;;6156487;23;20017;-65
2021/05/12 07:40:35;;;;;;;5.88;2.85;;;20.30;57.20;;;;;;6179341;23;20017;-62
2021/05/12 07:43:08;;;;;;;7.25;2.72;;;20.40;56.90;;;;;;6179388;23;20021;-61
2021/05/12 07:45:42;;;;;;;6.72;3.08;;;20.60;56.70;;;;;;6180165;23;20013;-61
2021/05/12 07:48:10;;;;;;;5.65;2.28;;;20.90;56.60;;;;;;6180789;23;20505;-62
2021/05/12 07:50:37;;;;;;;5.93;2.80;;;21.20;56.30;;;;;;6180232;23;20013;-63
2021/05/12 07:53:04;;;;;;;6.60;2.45;;;21.40;55.50;;;;;;6152809;23;20430;-63
2021/05/12 07:55:47;;;;;;;6.15;2.65;;;21.40;55.40;;;;;;6180333;23;20023;-63
2021/05/12 07:58:14;;;;;;;8.80;2.85;;;21.40;55.40;;;;;;6181187;23;20115;-63
2021/05/12 08:00:43;;;;;;;7.60;3.17;;;21.40;54.70;;;;;;6183732;23;20087;-64
2021/05/12 08:03:08;;;;;;;7.40;2.25;;;21.40;54.50;;;;;;6182663;23;20371;-64
2021/05/12 08:05:37;;;;;;;5.93;3.55;;;21.40;54.10;;;;;;6180954;23;20028;-63
2021/05/12 08:08:23;;;;;;;5.85;3.05;;;21.60;53.60;;;;;;6157864;23;20379;-65
2021/05/12 08:10:55;;;;;;;11.20;3.08;;;21.70;53.40;;;;;;6180325;23;20016;-64
2021/05/12 08:13:22;;;;;;;5.00;2.85;;;21.80;53.20;;;;;;6154450;23;20021;-63
2021/05/12 08:16:06;;;;;;;6.57;3.25;;;21.90;53.10;;;;;;6183901;23;20012;-62
2021/05/12 08:18:32;;;;;;;5.90;2.83;;;22.00;53.00;;;;;;6182813;23;20023;-62
2021/05/12 08:20:58;;;;;;;7.25;3.15;;;22.10;52.50;;;;;;6181000;23;20025;-63
2021/05/12 08:23:24;;;;;;;5.00;2.22;;;22.40;52.80;;;;;;6156240;23;20040;-65
2021/05/12 08:25:51;;;;;;;4.88;2.40;;;22.40;52.10;;;;;;6181720;23;20009;-64
2021/05/12 08:28:17;;;;;;;8.85;2.20;;;22.60;51.70;;;;;;6181882;23;20017;-65
2021/05/12 08:30:46;;;;;;;6.15;2.47;;;22.80;51.80;;;;;;6154974;23;20071;-64
2021/05/12 08:33:13;;;;;;;6.25;1.83;;;22.90;51.10;;;;;;6180712;23;20021;-65
2021/05/12 08:36:00;;;;;;;5.57;1.83;;;23.00;50.30;;;;;;6159246;23;20024;-65
2021/05/12 08:38:33;;;;;;;5.22;1.88;;;22.90;50.00;;;;;;6181296;23;20718;-65
2021/05/12 08:41:02;;;;;;;7.00;2.00;;;23.00;50.30;;;;;;6154536;23;20100;-66
2021/05/12 08:43:30;;;;;;;5.05;1.33;;;23.10;49.90;;;;;;6181683;23;20028;-64
2021/05/12 08:45:56;;;;;;;5.53;1.30;;;23.20;49.10;;;;;;6182408;23;20422;-65
2021/05/12 08:48:23;;;;;;;5.18;1.55;;;23.30;48.40;;;;;;6182336;23;20013;-65
2021/05/12 08:50:50;;;;;;;4.07;1.10;;;23.40;47.90;;;;;;6180972;23;20017;-65
2021/05/12 08:53:17;;;;;;;2.95;0.90;;;23.40;47.20;;;;;;6181608;23;20087;-65
2021/05/12 08:55:42;;;;;;;4.93;1.20;;;23.50;46.50;;;;;;6181843;23;20013;-65
2021/05/12 08:58:08;;;;;;;3.38;1.25;;;23.70;46.50;;;;;;6181198;23;20067;-64
2021/05/12 09:00:34;;;;;;;3.45;1.00;;;23.80;45.60;;;;;;6180934;23;20068;-63
2021/05/12 09:03:02;;;;;;;5.10;1.15;;;23.90;44.80;;;;;;6182110;23;20017;-63
2021/05/12 09:05:29;;;;;;;3.65;1.27;;;23.90;44.60;;;;;;6181821;23;20091;-64
2021/05/12 09:07:56;;;;;;;2.85;0.85;;;23.90;44.80;;;;;;6180230;23;20438;-62
2021/05/12 09:10:22;;;;;;;2.58;0.98;;;24.00;44.60;;;;;;6179230;23;20017;-64
2021/05/12 09:12:57;;;;;;;4.07;1.10;;;24.00;45.00;;;;;;6180383;23;20024;-62
2021/05/12 09:15:26;;;;;;;2.67;0.80;;;24.10;44.70;;;;;;6154703;23;20029;-70
2021/05/12 09:17:57;;;;;;;3.60;1.02;;;24.20;44.50;;;;;;6182451;23;20020;-64
2021/05/12 09:20:24;;;;;;;2.00;0.75;;;24.30;44.30;;;;;;6181168;23;20171;-64
2021/05/12 09:22:59;;;;;;;5.30;1.48;;;24.20;44.20;;;;;;6181744;23;20033;-64
2021/05/12 09:25:26;;;;;;;2.80;0.77;;;23.80;44.20;;;;;;6182940;23;20017;-64
2021/05/12 09:27:52;;;;;;;4.55;0.70;;;23.50;44.70;;;;;;6181453;23;20064;-63
2021/05/12 09:30:22;;;;;;;5.07;1.10;;;23.20;45.10;;;;;;6181501;23;20013;-63
2021/05/12 09:32:48;;;;;;;4.40;1.25;;;23.00;45.20;;;;;;6180160;23;20017;-63
2021/05/12 09:35:16;;;;;;;4.53;1.20;;;22.90;45.90;;;;;;6180340;23;20036;-63
2021/05/12 09:37:44;;;;;;;2.85;0.90;;;22.90;45.70;;;;;;6182173;23;20009;-63
2021/05/12 09:40:16;;;;;;;3.28;0.90;;;22.70;45.70;;;;;;6180149;23;20021;-63
2021/05/12 09:42:44;;;;;;;3.93;1.10;;;22.60;46.20;;;;;;6180575;23;20013;-63
2021/05/12 09:45:23;;;;;;;3.28;1.00;;;22.60;46.40;;;;;;6182209;23;20047;-61
2021/05/12 09:48:00;;;;;;;4.70;1.00;;;22.60;46.80;;;;;;6181189;23;20447;-63
2021/05/12 09:50:31;;;;;;;6.15;1.10;;;22.60;46.40;;;;;;6180875;23;20020;-65
2021/05/12 09:53:02;;;;;;;3.20;0.88;;;22.50;46.20;;;;;;6153949;23;20021;-63
2021/05/12 09:55:49;;;;;;;4.55;1.00;;;22.20;46.70;;;;;;6153867;23;20013;-63
2021/05/12 09:58:17;;;;;;;3.83;1.75;;;22.30;47.40;;;;;;6181780;23;20013;-69
2021/05/12 10:00:45;;;;;;;4.63;1.52;;;22.40;47.50;;;;;;6180243;23;20021;-69
2021/05/12 10:03:13;;;;;;;6.60;2.22;;;22.40;47.60;;;;;;6155430;23;20013;-69
2021/05/12 10:05:58;;;;;;;5.28;1.15;;;22.30;48.20;;;;;;6181456;23;20024;-69
2021/05/12 10:08:26;;;;;;;7.25;1.83;;;22.30;48.50;;;;;;6182681;23;20091;-70
2021/05/12 10:10:57;;;;;;;4.03;1.00;;;22.50;48.50;;;;;;6180992;23;20020;-69
2021/05/12 10:13:24;;;;;;;4.20;1.02;;;22.50;48.40;;;;;;6154646;23;20029;-69
2021/05/12 10:15:50;;;;;;;4.28;1.10;;;22.40;48.50;;;;;;6181352;23;20021;-69
2021/05/12 10:18:16;;;;;;;6.47;1.60;;;22.30;48.60;;;;;;6181898;23;20088;-69
2021/05/12 10:20:42;;;;;;;7.50;1.85;;;22.40;49.30;;;;;;6179724;23;20059;-70
2021/05/12 10:23:09;;;;;;;5.72;1.48;;;22.30;49.30;;;;;;6180327;23;20013;-69
2021/05/12 10:25:38;;;;;;;8.48;2.25;;;22.20;49.80;;;;;;6153440;23;20017;-69
2021/05/12 10:28:06;;;;;;;4.10;1.25;;;22.30;49.90;;;;;;6181521;23;20017;-69
2021/05/12 10:30:31;;;;;;;5.53;1.40;;;22.30;49.60;;;;;;6181303;23;20092;-70
2021/05/12 10:32:59;;;;;;;3.00;0.80;;;22.30;49.80;;;;;;6179749;23;20115;-70
2021/05/12 10:35:34;;;;;;;7.25;1.85;;;22.50;50.00;;;;;;6180048;23;20021;-70
2021/05/12 10:38:01;;;;;;;6.50;1.48;;;22.60;49.70;;;;;;6181458;23;20016;-64
2021/05/12 10:40:38;;;;;;;7.75;2.08;;;22.60;49.40;;;;;;6181689;23;20031;-64
2021/05/12 10:43:21;;;;;;;8.35;1.85;;;22.70;49.50;;;;;;6181071;23;20092;-64
2021/05/12 10:48:46;;;;;;;9.20;2.10;;;22.80;49.70;;;;;;6180220;23;20017;-65
2021/05/12 10:51:20;;;;;;;4.93;1.00;;;23.00;50.10;;;;;;6149033;23;20100;-70
2021/05/12 10:53:49;;;;;;;5.22;1.23;;;23.00;49.70;;;;;;6179982;23;20339;-66
2021/05/12 10:56:16;;;;;;;7.45;1.92;;;22.90;49.70;;;;;;6179877;23;20021;-66
2021/05/12 10:59:07;;;;;;;9.18;2.03;;;22.70;49.30;;;;;;6180036;23;20096;-66
2021/05/12 11:01:42;;;;;;;64.00;12.88;;;22.40;49.20;;;;;;6179413;23;20044;-65
2021/05/12 11:04:10;;;;;;;16.02;3.50;;;22.30;50.80;;;;;;6180502;23;20096;-65
2021/05/12 11:06:35;;;;;;;8.23;1.65;;;22.40;51.30;;;;;;6180589;23;20096;-63
2021/05/12 11:09:14;;;;;;;6.72;1.75;;;22.50;51.30;;;;;;6179181;23;20017;-63
2021/05/12 11:11:49;;;;;;;9.63;1.90;;;22.50;51.20;;;;;;6179036;23;20017;-63
2021/05/12 11:14:32;;;;;;;6.95;1.48;;;22.40;50.70;;;;;;6153520;23;20509;-63
2021/05/12 11:17:12;;;;;;;8.82;1.70;;;22.40;51.00;;;;;;6179333;23;20021;-63
2021/05/12 11:22:25;;;;;;;8.15;1.80;;;22.40;51.50;;;;;;6179019;23;20019;-63
2021/05/12 11:24:55;;;;;;;9.27;2.70;;;22.30;51.00;;;;;;6180505;23;20017;-62
2021/05/12 11:28:17;;;;;;;10.18;2.08;;;22.30;51.00;;;;;;6179396;23;20064;-61
2021/05/12 11:32:35;;;;;;;10.57;1.88;;;21.90;51.10;;;;;;6179150;23;20021;-62
2021/05/12 11:35:03;;;;;;;7.38;1.63;;;21.70;51.30;;;;;;6181513;23;20459;-61
2021/05/12 11:37:32;;;;;;;10.40;2.08;;;21.50;51.60;;;;;;6182270;23;20458;-62
2021/05/12 11:39:58;;;;;;;11.18;2.00;;;21.40;52.00;;;;;;6182773;23;20461;-62
2021/05/12 11:42:34;;;;;;;7.72;1.60;;;21.50;53.00;;;;;;6154614;23;20013;-62
2021/05/12 11:45:07;;;;;;;7.43;1.92;;;21.50;52.10;;;;;;6180724;23;20009;-62
2021/05/12 11:47:34;;;;;;;8.90;2.40;;;21.40;52.50;;;;;;6183801;23;20013;-62
2021/05/12 11:50:00;;;;;;;12.82;2.88;;;21.30;52.80;;;;;;6182682;23;20017;-62
2021/05/12 11:52:30;;;;;;;16.23;4.15;;;21.30;52.70;;;;;;6181827;23;20518;-62
2021/05/12 11:55:09;;;;;;;15.77;3.08;;;21.30;53.00;;;;;;6182163;23;20501;-62
2021/05/12 11:57:38;;;;;;;16.50;3.53;;;21.20;52.60;;;;;;6154072;23;20021;-61
2021/05/12 12:00:07;;;;;;;13.13;2.75;;;21.10;52.80;;;;;;6182478;23;20443;-62
2021/05/12 12:02:33;;;;;;;7.85;1.83;;;21.10;52.80;;;;;;6182377;23;20035;-62
2021/05/12 12:05:04;;;;;;;11.30;2.67;;;21.10;53.40;;;;;;6182471;23;20013;-62
2021/05/12 12:07:32;;;;;;;9.35;2.53;;;21.20;53.90;;;;;;6181194;23;20024;-62
2021/05/12 12:10:06;;;;;;;9.43;2.17;;;21.30;54.00;;;;;;6182277;23;20021;-62
2021/05/12 12:12:34;;;;;;;8.02;1.88;;;21.30;53.70;;;;;;6181070;23;20517;-61
2021/05/12 12:15:10;;;;;;;10.38;2.05;;;21.20;53.80;;;;;;6180840;23;20079;-62
2021/05/12 12:17:37;;;;;;;11.13;2.40;;;21.20;53.70;;;;;;6180729;23;20028;-63
2021/05/12 12:20:08;;;;;;;9.45;2.45;;;21.10;53.70;;;;;;6183482;23;20013;-62
2021/05/12 12:22:34;;;;;;;6.72;2.08;;;21.10;53.20;;;;;;6179887;23;20016;-61
2021/05/12 12:25:13;;;;;;;9.10;2.42;;;21.20;53.60;;;;;;6180601;23;20015;-62
2021/05/12 12:27:42;;;;;;;11.57;2.30;;;21.20;53.60;;;;;;6181238;23;20040;-62
2021/05/12 12:30:10;;;;;;;13.75;2.28;;;21.20;53.20;;;;;;6180676;23;20041;-62
2021/05/12 12:32:36;;;;;;;12.85;2.83;;;21.30;53.60;;;;;;6180901;23;20017;-62
2021/05/12 12:35:03;;;;;;;10.85;2.42;;;21.50;53.20;;;;;;6180099;23;20032;-63
2021/05/12 12:37:32;;;;;;;8.77;1.90;;;21.60;52.40;;;;;;6181445;23;20009;-62
2021/05/12 12:40:09;;;;;;;8.68;2.05;;;21.80;52.70;;;;;;6153912;23;20017;-63
2021/05/12 12:42:40;;;;;;;9.70;2.20;;;21.80;52.60;;;;;;6181489;23;20117;-62
2021/05/12 12:45:27;;;;;;;6.78;1.60;;;21.80;52.70;;;;;;6180675;23;20013;-64
2021/05/12 12:48:01;;;;;;;8.85;1.70;;;21.80;52.60;;;;;;6180126;23;20019;-64
2021/05/12 12:50:29;;;;;;;7.95;2.47;;;22.00;52.60;;;;;;6180401;23;20077;-68
2021/05/12 12:53:00;;;;;;;9.40;1.80;;;22.10;52.00;;;;;;6181606;23;20017;-68
2021/05/12 12:55:27;;;;;;;13.40;2.40;;;22.30;51.50;;;;;;6156130;23;20082;-70
2021/05/12 12:57:57;;;;;;;6.18;1.33;;;22.30;50.90;;;;;;6180244;23;20032;-68
2021/05/12 13:00:24;;;;;;;8.90;1.92;;;22.30;51.10;;;;;;6182188;23;20024;-65